Terminal Aerodrome Forecast
Issued by NWS Topeka, KS

Home | Current Version | Previous Version | Graphics & Text | Print | Product List | Glossary On
Versions: 1 2 3 4 5 6 7 8 9 10 11 12 13 14 15 16 17
622
FTUS43 KTOP 112320
TAFTOP
TAF
KTOP 112320Z 1200/1224 12004KT P6SM SCT050 SCT120
     FM120800 35010KT P6SM SCT020 SCT040
     FM121600 35012G18KT P6SM SCT020=

USA.gov is the U.S. government's official web portal to all federal, state and local government web resources and services.